sensor_id;sensor_type;location;lat;lon;timestamp;temperature;humidity
18412;DHT22;27097;51.738;19.472;2023-05-10T00:01:13;21.60;72.20
18412;DHT22;27097;51.738;19.472;2023-05-10T00:03:39;21.60;73.00
18412;DHT22;27097;51.738;19.472;2023-05-10T00:06:06;21.60;73.60
18412;DHT22;27097;51.738;19.472;2023-05-10T00:08:33;21.60;73.90
18412;DHT22;27097;51.738;19.472;2023-05-10T00:11:00;21.60;74.00
18412;DHT22;27097;51.738;19.472;2023-05-10T00:13:27;21.60;74.40
18412;DHT22;27097;51.738;19.472;2023-05-10T00:15:55;21.60;74.40
18412;DHT22;27097;51.738;19.472;2023-05-10T00:18:22;21.60;74.50
18412;DHT22;27097;51.738;19.472;2023-05-10T00:20:49;21.60;74.50
18412;DHT22;27097;51.738;19.472;2023-05-10T00:23:16;21.60;74.10
18412;DHT22;27097;51.738;19.472;2023-05-10T00:25:43;21.60;74.40
18412;DHT22;27097;51.738;19.472;2023-05-10T00:28:10;21.60;74.30
18412;DHT22;27097;51.738;19.472;2023-05-10T00:30:36;21.60;74.40
18412;DHT22;27097;51.738;19.472;2023-05-10T00:33:05;21.60;74.00
18412;DHT22;27097;51.738;19.472;2023-05-10T00:35:32;21.60;73.80
18412;DHT22;27097;51.738;19.472;2023-05-10T00:37:59;21.60;73.60
18412;DHT22;27097;51.738;19.472;2023-05-10T00:40:26;21.60;73.70
18412;DHT22;27097;51.738;19.472;2023-05-10T00:42:54;21.60;74.10
18412;DHT22;27097;51.738;19.472;2023-05-10T00:45:21;21.60;74.00
18412;DHT22;27097;51.738;19.472;2023-05-10T00:47:48;21.60;73.80
18412;DHT22;27097;51.738;19.472;2023-05-10T00:50:16;21.60;73.90
18412;DHT22;27097;51.738;19.472;2023-05-10T00:52:43;21.60;74.00
18412;DHT22;27097;51.738;19.472;2023-05-10T00:55:11;21.60;74.10
18412;DHT22;27097;51.738;19.472;2023-05-10T00:57:38;21.60;73.90
18412;DHT22;27097;51.738;19.472;2023-05-10T01:00:07;21.60;74.10
18412;DHT22;27097;51.738;19.472;2023-05-10T01:02:34;21.60;74.10
18412;DHT22;27097;51.738;19.472;2023-05-10T01:05:02;21.60;74.10
18412;DHT22;27097;51.738;19.472;2023-05-10T01:07:32;21.60;74.20
18412;DHT22;27097;51.738;19.472;2023-05-10T01:09:58;21.60;74.30
18412;DHT22;27097;51.738;19.472;2023-05-10T01:12:25;21.60;74.30
18412;DHT22;27097;51.738;19.472;2023-05-10T01:14:57;21.60;74.00
18412;DHT22;27097;51.738;19.472;2023-05-10T01:17:27;21.60;74.00
18412;DHT22;27097;51.738;19.472;2023-05-10T01:19:54;21.60;74.20
18412;DHT22;27097;51.738;19.472;2023-05-10T01:22:50;21.60;74.10
18412;DHT22;27097;51.738;19.472;2023-05-10T01:28:49;21.60;73.90
18412;DHT22;27097;51.738;19.472;2023-05-10T01:31:35;21.60;74.30
18412;DHT22;27097;51.738;19.472;2023-05-10T01:34:15;21.60;74.10
18412;DHT22;27097;51.738;19.472;2023-05-10T01:36:47;21.60;74.30
18412;DHT22;27097;51.738;19.472;2023-05-10T01:39:30;21.60;73.90
18412;DHT22;27097;51.738;19.472;2023-05-10T01:42:09;21.50;73.90
18412;DHT22;27097;51.738;19.472;2023-05-10T01:44:41;21.50;73.80
18412;DHT22;27097;51.738;19.472;2023-05-10T01:47:11;21.50;73.80
18412;DHT22;27097;51.738;19.472;2023-05-10T01:49:45;21.50;73.60
18412;DHT22;27097;51.738;19.472;2023-05-10T01:52:15;21.50;73.70
18412;DHT22;27097;51.738;19.472;2023-05-10T01:54:51;21.50;73.60
18412;DHT22;27097;51.738;19.472;2023-05-10T01:57:31;21.50;73.90
18412;DHT22;27097;51.738;19.472;2023-05-10T02:00:12;21.50;74.00
18412;DHT22;27097;51.738;19.472;2023-05-10T02:02:45;21.50;74.20
18412;DHT22;27097;51.738;19.472;2023-05-10T02:05:15;21.50;74.00
18412;DHT22;27097;51.738;19.472;2023-05-10T02:07:43;21.50;74.10
18412;DHT22;27097;51.738;19.472;2023-05-10T02:10:11;21.50;74.10
18412;DHT22;27097;51.738;19.472;2023-05-10T02:12:41;21.50;74.10
18412;DHT22;27097;51.738;19.472;2023-05-10T02:15:11;21.50;74.00
18412;DHT22;27097;51.738;19.472;2023-05-10T02:17:39;21.50;73.90
18412;DHT22;27097;51.738;19.472;2023-05-10T02:20:09;21.50;74.10
18412;DHT22;27097;51.738;19.472;2023-05-10T02:22:39;21.50;74.30
18412;DHT22;27097;51.738;19.472;2023-05-10T02:25:08;21.50;73.90
18412;DHT22;27097;51.738;19.472;2023-05-10T02:27:36;21.50;73.90
18412;DHT22;27097;51.738;19.472;2023-05-10T02:30:05;21.50;74.00
18412;DHT22;27097;51.738;19.472;2023-05-10T02:32:34;21.50;74.40
18412;DHT22;27097;51.738;19.472;2023-05-10T02:35:02;21.50;74.40
18412;DHT22;27097;51.738;19.472;2023-05-10T02:37:30;21.50;74.80
18412;DHT22;27097;51.738;19.472;2023-05-10T02:39:59;21.50;74.60
18412;DHT22;27097;51.738;19.472;2023-05-10T02:42:29;21.50;74.40
18412;DHT22;27097;51.738;19.472;2023-05-10T02:45:00;21.50;74.90
18412;DHT22;27097;51.738;19.472;2023-05-10T02:47:28;21.50;74.90
18412;DHT22;27097;51.738;19.472;2023-05-10T02:49:55;21.50;74.80
18412;DHT22;27097;51.738;19.472;2023-05-10T02:52:25;21.50;74.80
18412;DHT22;27097;51.738;19.472;2023-05-10T02:54:55;21.50;74.50
18412;DHT22;27097;51.738;19.472;2023-05-10T02:57:28;21.50;74.60
18412;DHT22;27097;51.738;19.472;2023-05-10T02:59:59;21.50;74.80
18412;DHT22;27097;51.738;19.472;2023-05-10T03:02:28;21.50;74.80
18412;DHT22;27097;51.738;19.472;2023-05-10T03:04:56;21.50;75.00
18412;DHT22;27097;51.738;19.472;2023-05-10T03:07:23;21.50;74.80
18412;DHT22;27097;51.738;19.472;2023-05-10T03:09:50;21.50;74.70
18412;DHT22;27097;51.738;19.472;2023-05-10T03:12:25;21.50;74.60
18412;DHT22;27097;51.738;19.472;2023-05-10T03:15:02;21.50;74.70
18412;DHT22;27097;51.738;19.472;2023-05-10T03:17:43;21.50;75.10
18412;DHT22;27097;51.738;19.472;2023-05-10T03:20:16;21.50;74.80
18412;DHT22;27097;51.738;19.472;2023-05-10T03:22:50;21.50;75.00
18412;DHT22;27097;51.738;19.472;2023-05-10T03:25:19;21.50;75.30
18412;DHT22;27097;51.738;19.472;2023-05-10T03:27:47;21.50;75.20
18412;DHT22;27097;51.738;19.472;2023-05-10T03:30:16;21.50;75.00
18412;DHT22;27097;51.738;19.472;2023-05-10T03:32:43;21.50;75.10
18412;DHT22;27097;51.738;19.472;2023-05-10T03:35:11;21.50;75.00
18412;DHT22;27097;51.738;19.472;2023-05-10T03:37:39;21.50;75.20
18412;DHT22;27097;51.738;19.472;2023-05-10T03:40:07;21.50;75.30
18412;DHT22;27097;51.738;19.472;2023-05-10T03:42:34;21.50;74.90
18412;DHT22;27097;51.738;19.472;2023-05-10T03:45:01;21.50;74.90
18412;DHT22;27097;51.738;19.472;2023-05-10T03:47:29;21.50;75.10
18412;DHT22;27097;51.738;19.472;2023-05-10T03:49:57;21.50;75.10
18412;DHT22;27097;51.738;19.472;2023-05-10T03:52:23;21.50;75.00
18412;DHT22;27097;51.738;19.472;2023-05-10T03:54:50;21.50;75.20
18412;DHT22;27097;51.738;19.472;2023-05-10T03:57:17;21.50;74.80
18412;DHT22;27097;51.738;19.472;2023-05-10T03:59:44;21.50;75.40
18412;DHT22;27097;51.738;19.472;2023-05-10T04:02:11;21.50;74.40
18412;DHT22;27097;51.738;19.472;2023-05-10T04:04:39;21.50;74.50
18412;DHT22;27097;51.738;19.472;2023-05-10T04:07:06;21.50;74.70
18412;DHT22;27097;51.738;19.472;2023-05-10T04:09:33;21.50;74.80
18412;DHT22;27097;51.738;19.472;2023-05-10T04:12:00;21.50;74.90
18412;DHT22;27097;51.738;19.472;2023-05-10T04:14:27;21.50;74.80
18412;DHT22;27097;51.738;19.472;2023-05-10T04:16:54;21.50;75.70
18412;DHT22;27097;51.738;19.472;2023-05-10T04:19:21;21.50;74.90
18412;DHT22;27097;51.738;19.472;2023-05-10T04:21:49;21.50;74.90
18412;DHT22;27097;51.738;19.472;2023-05-10T04:24:16;21.50;74.80
18412;DHT22;27097;51.738;19.472;2023-05-10T04:26:43;21.50;74.70
18412;DHT22;27097;51.738;19.472;2023-05-10T04:31:35;21.50;74.40
18412;DHT22;27097;51.738;19.472;2023-05-10T04:34:02;21.50;74.50
18412;DHT22;27097;51.738;19.472;2023-05-10T04:36:29;21.50;74.70
18412;DHT22;27097;51.738;19.472;2023-05-10T04:38:59;21.60;74.80
18412;DHT22;27097;51.738;19.472;2023-05-10T04:41:26;21.60;74.80
18412;DHT22;27097;51.738;19.472;2023-05-10T04:43:52;21.60;74.80
18412;DHT22;27097;51.738;19.472;2023-05-10T04:46:19;21.60;75.50
18412;DHT22;27097;51.738;19.472;2023-05-10T04:48:46;21.60;74.50
18412;DHT22;27097;51.738;19.472;2023-05-10T04:51:13;21.60;74.10
18412;DHT22;27097;51.738;19.472;2023-05-10T04:53:40;21.60;74.30
18412;DHT22;27097;51.738;19.472;2023-05-10T04:56:08;21.60;74.00
18412;DHT22;27097;51.738;19.472;2023-05-10T04:58:35;21.60;74.10
18412;DHT22;27097;51.738;19.472;2023-05-10T05:01:05;21.60;73.50
18412;DHT22;27097;51.738;19.472;2023-05-10T05:03:33;21.60;73.30
18412;DHT22;27097;51.738;19.472;2023-05-10T05:06:00;21.70;73.40
18412;DHT22;27097;51.738;19.472;2023-05-10T05:08:27;21.70;73.10
18412;DHT22;27097;51.738;19.472;2023-05-10T05:10:54;21.70;73.40
18412;DHT22;27097;51.738;19.472;2023-05-10T05:13:22;21.70;73.40
18412;DHT22;27097;51.738;19.472;2023-05-10T05:15:49;21.70;72.70
18412;DHT22;27097;51.738;19.472;2023-05-10T05:18:16;21.70;72.70
18412;DHT22;27097;51.738;19.472;2023-05-10T05:20:43;21.70;72.80
18412;DHT22;27097;51.738;19.472;2023-05-10T05:23:10;21.80;72.20
18412;DHT22;27097;51.738;19.472;2023-05-10T05:25:37;21.80;72.70
18412;DHT22;27097;51.738;19.472;2023-05-10T05:28:04;21.80;72.10
18412;DHT22;27097;51.738;19.472;2023-05-10T05:30:32;21.80;72.70
18412;DHT22;27097;51.738;19.472;2023-05-10T05:33:02;21.80;72.00
18412;DHT22;27097;51.738;19.472;2023-05-10T05:35:29;21.80;71.90
18412;DHT22;27097;51.738;19.472;2023-05-10T05:37:56;21.80;71.00
18412;DHT22;27097;51.738;19.472;2023-05-10T05:40:23;21.80;70.70
18412;DHT22;27097;51.738;19.472;2023-05-10T05:42:50;21.80;70.30
18412;DHT22;27097;51.738;19.472;2023-05-10T05:45:17;21.80;70.50
18412;DHT22;27097;51.738;19.472;2023-05-10T05:47:45;21.80;70.00
18412;DHT22;27097;51.738;19.472;2023-05-10T05:50:12;21.80;69.90
18412;DHT22;27097;51.738;19.472;2023-05-10T05:52:39;21.80;69.80
18412;DHT22;27097;51.738;19.472;2023-05-10T05:55:06;21.80;69.60
18412;DHT22;27097;51.738;19.472;2023-05-10T05:57:33;21.80;69.70
18412;DHT22;27097;51.738;19.472;2023-05-10T06:00:00;21.80;69.90
18412;DHT22;27097;51.738;19.472;2023-05-10T06:02:28;21.90;69.60
18412;DHT22;27097;51.738;19.472;2023-05-10T06:04:56;21.90;68.80
18412;DHT22;27097;51.738;19.472;2023-05-10T06:07:23;21.90;69.30
18412;DHT22;27097;51.738;19.472;2023-05-10T06:09:50;21.90;68.50
18412;DHT22;27097;51.738;19.472;2023-05-10T06:12:17;21.90;66.90
18412;DHT22;27097;51.738;19.472;2023-05-10T06:14:44;22.00;65.00
18412;DHT22;27097;51.738;19.472;2023-05-10T06:17:11;22.00;66.30
18412;DHT22;27097;51.738;19.472;2023-05-10T06:19:38;22.10;72.10
18412;DHT22;27097;51.738;19.472;2023-05-10T06:22:06;22.10;72.00
18412;DHT22;27097;51.738;19.472;2023-05-10T06:24:33;22.10;69.80
18412;DHT22;27097;51.738;19.472;2023-05-10T06:27:00;22.10;69.00
18412;DHT22;27097;51.738;19.472;2023-05-10T06:29:27;22.10;68.00
18412;DHT22;27097;51.738;19.472;2023-05-10T06:31:54;22.20;66.70
18412;DHT22;27097;51.738;19.472;2023-05-10T06:34:21;22.20;66.00
18412;DHT22;27097;51.738;19.472;2023-05-10T06:36:48;22.20;66.40
18412;DHT22;27097;51.738;19.472;2023-05-10T06:39:16;22.20;65.40
18412;DHT22;27097;51.738;19.472;2023-05-10T06:41:43;22.30;66.10
18412;DHT22;27097;51.738;19.472;2023-05-10T06:44:10;22.30;66.70
18412;DHT22;27097;51.738;19.472;2023-05-10T06:46:38;22.30;65.50
18412;DHT22;27097;51.738;19.472;2023-05-10T06:54:37;22.30;67.30
18412;DHT22;27097;51.738;19.472;2023-05-10T07:03:06;22.30;66.70
18412;DHT22;27097;51.738;19.472;2023-05-10T07:14:09;22.30;66.60
18412;DHT22;27097;51.738;19.472;2023-05-10T07:16:36;22.30;67.40
18412;DHT22;27097;51.738;19.472;2023-05-10T07:19:05;22.30;67.10
18412;DHT22;27097;51.738;19.472;2023-05-10T07:21:33;22.30;65.80
18412;DHT22;27097;51.738;19.472;2023-05-10T07:24:06;22.30;66.40
18412;DHT22;27097;51.738;19.472;2023-05-10T07:26:54;22.30;67.40
18412;DHT22;27097;51.738;19.472;2023-05-10T07:29:36;22.30;67.60
18412;DHT22;27097;51.738;19.472;2023-05-10T07:32:03;22.30;67.70
18412;DHT22;27097;51.738;19.472;2023-05-10T07:34:30;22.30;67.70
18412;DHT22;27097;51.738;19.472;2023-05-10T07:36:58;22.30;67.80
18412;DHT22;27097;51.738;19.472;2023-05-10T07:39:25;22.30;67.70
18412;DHT22;27097;51.738;19.472;2023-05-10T07:41:52;22.30;67.30
18412;DHT22;27097;51.738;19.472;2023-05-10T07:44:19;22.30;66.90
18412;DHT22;27097;51.738;19.472;2023-05-10T07:46:47;22.30;67.70
18412;DHT22;27097;51.738;19.472;2023-05-10T07:49:22;22.30;67.00
18412;DHT22;27097;51.738;19.472;2023-05-10T07:51:50;22.40;67.00
18412;DHT22;27097;51.738;19.472;2023-05-10T07:54:20;22.30;67.60
18412;DHT22;27097;51.738;19.472;2023-05-10T07:56:49;22.30;67.20
18412;DHT22;27097;51.738;19.472;2023-05-10T07:59:17;22.40;67.30
18412;DHT22;27097;51.738;19.472;2023-05-10T08:01:44;22.40;67.30
18412;DHT22;27097;51.738;19.472;2023-05-10T08:07:49;22.40;66.80
18412;DHT22;27097;51.738;19.472;2023-05-10T08:10:18;22.40;67.00
18412;DHT22;27097;51.738;19.472;2023-05-10T08:12:59;22.40;66.90
18412;DHT22;27097;51.738;19.472;2023-05-10T08:15:26;22.40;66.80
18412;DHT22;27097;51.738;19.472;2023-05-10T08:17:53;22.40;66.50
18412;DHT22;27097;51.738;19.472;2023-05-10T08:22:52;22.40;66.90
18412;DHT22;27097;51.738;19.472;2023-05-10T08:25:22;22.50;66.80
18412;DHT22;27097;51.738;19.472;2023-05-10T08:34:00;22.50;66.50
18412;DHT22;27097;51.738;19.472;2023-05-10T08:36:28;22.50;66.80
18412;DHT22;27097;51.738;19.472;2023-05-10T08:39:38;22.50;66.80
18412;DHT22;27097;51.738;19.472;2023-05-10T08:49:22;22.60;68.00
18412;DHT22;27097;51.738;19.472;2023-05-10T08:51:55;22.60;68.10
18412;DHT22;27097;51.738;19.472;2023-05-10T08:54:23;22.60;68.20
18412;DHT22;27097;51.738;19.472;2023-05-10T08:56:59;22.60;68.20
18412;DHT22;27097;51.738;19.472;2023-05-10T08:59:27;22.60;69.00
18412;DHT22;27097;51.738;19.472;2023-05-10T09:01:56;22.60;69.00
18412;DHT22;27097;51.738;19.472;2023-05-10T09:04:24;22.60;68.50
18412;DHT22;27097;51.738;19.472;2023-05-10T09:06:51;22.60;69.20
18412;DHT22;27097;51.738;19.472;2023-05-10T09:09:19;22.60;68.80
18412;DHT22;27097;51.738;19.472;2023-05-10T09:11:47;22.60;68.30
18412;DHT22;27097;51.738;19.472;2023-05-10T09:14:15;22.60;66.20
18412;DHT22;27097;51.738;19.472;2023-05-10T09:16:43;22.70;62.30
18412;DHT22;27097;51.738;19.472;2023-05-10T09:19:10;22.70;60.00
18412;DHT22;27097;51.738;19.472;2023-05-10T09:21:37;22.80;59.70
18412;DHT22;27097;51.738;19.472;2023-05-10T09:24:07;22.80;59.80
18412;DHT22;27097;51.738;19.472;2023-05-10T09:26:34;22.80;58.30
18412;DHT22;27097;51.738;19.472;2023-05-10T09:29:02;22.90;54.50
18412;DHT22;27097;51.738;19.472;2023-05-10T09:31:46;23.00;56.30
18412;DHT22;27097;51.738;19.472;2023-05-10T09:34:16;23.00;57.00
18412;DHT22;27097;51.738;19.472;2023-05-10T09:36:54;23.10;56.90
18412;DHT22;27097;51.738;19.472;2023-05-10T09:39:30;23.10;54.50
18412;DHT22;27097;51.738;19.472;2023-05-10T09:41:58;23.10;52.40
18412;DHT22;27097;51.738;19.472;2023-05-10T09:44:26;23.20;54.20
18412;DHT22;27097;51.738;19.472;2023-05-10T09:46:59;23.20;56.10
18412;DHT22;27097;51.738;19.472;2023-05-10T09:49:41;23.20;52.70
18412;DHT22;27097;51.738;19.472;2023-05-10T09:52:19;23.20;54.30
18412;DHT22;27097;51.738;19.472;2023-05-10T09:54:52;23.20;54.60
18412;DHT22;27097;51.738;19.472;2023-05-10T09:57:20;23.30;52.70
18412;DHT22;27097;51.738;19.472;2023-05-10T09:59:47;23.30;54.80
18412;DHT22;27097;51.738;19.472;2023-05-10T10:02:16;23.30;57.00
18412;DHT22;27097;51.738;19.472;2023-05-10T10:04:43;23.30;58.30
18412;DHT22;27097;51.738;19.472;2023-05-10T10:07:10;23.20;62.20
18412;DHT22;27097;51.738;19.472;2023-05-10T10:12:43;23.10;57.80
18412;DHT22;27097;51.738;19.472;2023-05-10T10:15:13;23.10;56.50
18412;DHT22;27097;51.738;19.472;2023-05-10T10:39:51;22.90;57.60
18412;DHT22;27097;51.738;19.472;2023-05-10T10:45:22;22.90;61.20
18412;DHT22;27097;51.738;19.472;2023-05-10T10:51:13;22.80;60.80
18412;DHT22;27097;51.738;19.472;2023-05-10T10:53:43;22.80;60.40
18412;DHT22;27097;51.738;19.472;2023-05-10T10:56:35;22.80;59.60
18412;DHT22;27097;51.738;19.472;2023-05-10T11:24:33;22.60;62.90
18412;DHT22;27097;51.738;19.472;2023-05-10T11:39:14;22.60;61.20
18412;DHT22;27097;51.738;19.472;2023-05-10T11:41:42;22.60;62.30
18412;DHT22;27097;51.738;19.472;2023-05-10T11:44:09;22.60;62.40
18412;DHT22;27097;51.738;19.472;2023-05-10T11:46:36;22.60;59.50
18412;DHT22;27097;51.738;19.472;2023-05-10T11:49:03;22.60;60.20
18412;DHT22;27097;51.738;19.472;2023-05-10T11:51:34;22.60;60.90
18412;DHT22;27097;51.738;19.472;2023-05-10T11:54:07;22.70;57.70
18412;DHT22;27097;51.738;19.472;2023-05-10T11:56:34;22.70;58.40
18412;DHT22;27097;51.738;19.472;2023-05-10T11:59:03;22.70;59.30
18412;DHT22;27097;51.738;19.472;2023-05-10T12:01:31;22.70;61.00
18412;DHT22;27097;51.738;19.472;2023-05-10T12:03:58;22.70;58.70
18412;DHT22;27097;51.738;19.472;2023-05-10T12:06:26;22.70;60.50
18412;DHT22;27097;51.738;19.472;2023-05-10T12:08:53;22.70;63.80
18412;DHT22;27097;51.738;19.472;2023-05-10T12:11:24;22.60;61.90
18412;DHT22;27097;51.738;19.472;2023-05-10T12:13:51;22.60;63.10
18412;DHT22;27097;51.738;19.472;2023-05-10T12:16:21;22.60;58.10
18412;DHT22;27097;51.738;19.472;2023-05-10T12:18:49;22.60;62.90
18412;DHT22;27097;51.738;19.472;2023-05-10T12:21:17;22.50;59.00
18412;DHT22;27097;51.738;19.472;2023-05-10T12:23:45;22.50;59.70
18412;DHT22;27097;51.738;19.472;2023-05-10T12:26:13;22.50;59.10
18412;DHT22;27097;51.738;19.472;2023-05-10T12:28:40;22.50;58.70
18412;DHT22;27097;51.738;19.472;2023-05-10T12:31:07;22.50;64.10
18412;DHT22;27097;51.738;19.472;2023-05-10T12:33:40;22.50;62.40
18412;DHT22;27097;51.738;19.472;2023-05-10T12:36:08;22.50;60.70
18412;DHT22;27097;51.738;19.472;2023-05-10T12:38:37;22.40;59.70
18412;DHT22;27097;51.738;19.472;2023-05-10T12:41:06;22.40;60.00
18412;DHT22;27097;51.738;19.472;2023-05-10T12:43:34;22.40;61.40
18412;DHT22;27097;51.738;19.472;2023-05-10T12:46:11;22.40;62.30
18412;DHT22;27097;51.738;19.472;2023-05-10T12:48:41;22.40;60.50
18412;DHT22;27097;51.738;19.472;2023-05-10T12:51:08;22.40;61.90
18412;DHT22;27097;51.738;19.472;2023-05-10T12:53:38;22.40;62.20
18412;DHT22;27097;51.738;19.472;2023-05-10T12:56:06;22.40;62.40
18412;DHT22;27097;51.738;19.472;2023-05-10T12:58:33;22.40;63.00
18412;DHT22;27097;51.738;19.472;2023-05-10T13:01:01;22.30;60.90
18412;DHT22;27097;51.738;19.472;2023-05-10T13:06:20;22.30;56.90
18412;DHT22;27097;51.738;19.472;2023-05-10T13:08:47;22.30;60.50
18412;DHT22;27097;51.738;19.472;2023-05-10T13:11:14;22.30;59.90
18412;DHT22;27097;51.738;19.472;2023-05-10T13:13:42;22.30;58.80
18412;DHT22;27097;51.738;19.472;2023-05-10T13:16:10;22.30;62.40
18412;DHT22;27097;51.738;19.472;2023-05-10T13:18:37;22.30;62.10
18412;DHT22;27097;51.738;19.472;2023-05-10T13:21:03;22.30;61.20
18412;DHT22;27097;51.738;19.472;2023-05-10T13:23:32;22.30;59.70
18412;DHT22;27097;51.738;19.472;2023-05-10T13:25:59;22.20;58.90
18412;DHT22;27097;51.738;19.472;2023-05-10T13:28:26;22.20;58.40
18412;DHT22;27097;51.738;19.472;2023-05-10T13:30:53;22.20;59.20
18412;DHT22;27097;51.738;19.472;2023-05-10T13:33:19;22.20;57.90
18412;DHT22;27097;51.738;19.472;2023-05-10T13:35:46;22.20;59.00
18412;DHT22;27097;51.738;19.472;2023-05-10T13:38:13;22.20;60.60
18412;DHT22;27097;51.738;19.472;2023-05-10T13:40:41;22.20;60.00
18412;DHT22;27097;51.738;19.472;2023-05-10T13:43:10;22.20;58.00
18412;DHT22;27097;51.738;19.472;2023-05-10T13:45:36;22.20;57.90
18412;DHT22;27097;51.738;19.472;2023-05-10T13:48:07;22.20;57.50
18412;DHT22;27097;51.738;19.472;2023-05-10T13:50:40;22.20;58.60
18412;DHT22;27097;51.738;19.472;2023-05-10T13:53:07;22.20;59.50
18412;DHT22;27097;51.738;19.472;2023-05-10T13:55:33;22.20;60.40
18412;DHT22;27097;51.738;19.472;2023-05-10T13:58:02;22.20;59.30
18412;DHT22;27097;51.738;19.472;2023-05-10T14:00:29;22.20;57.90
18412;DHT22;27097;51.738;19.472;2023-05-10T14:02:56;22.20;58.80
18412;DHT22;27097;51.738;19.472;2023-05-10T14:05:23;22.20;58.40
18412;DHT22;27097;51.738;19.472;2023-05-10T14:07:50;22.10;56.80
18412;DHT22;27097;51.738;19.472;2023-05-10T14:10:17;22.10;57.80
18412;DHT22;27097;51.738;19.472;2023-05-10T14:12:44;22.10;58.00
18412;DHT22;27097;51.738;19.472;2023-05-10T14:15:12;22.10;58.40
18412;DHT22;27097;51.738;19.472;2023-05-10T14:17:39;22.10;57.50
18412;DHT22;27097;51.738;19.472;2023-05-10T14:20:07;22.10;57.40
18412;DHT22;27097;51.738;19.472;2023-05-10T14:22:34;22.10;58.10
18412;DHT22;27097;51.738;19.472;2023-05-10T14:25:01;22.10;57.20
18412;DHT22;27097;51.738;19.472;2023-05-10T14:27:28;22.10;58.30
18412;DHT22;27097;51.738;19.472;2023-05-10T14:29:55;22.10;57.60
18412;DHT22;27097;51.738;19.472;2023-05-10T14:32:23;22.10;57.80
18412;DHT22;27097;51.738;19.472;2023-05-10T14:34:52;22.10;57.60
18412;DHT22;27097;51.738;19.472;2023-05-10T14:37:19;22.10;57.60
18412;DHT22;27097;51.738;19.472;2023-05-10T14:39:46;22.10;56.90
18412;DHT22;27097;51.738;19.472;2023-05-10T14:42:13;22.10;57.50
18412;DHT22;27097;51.738;19.472;2023-05-10T14:44:41;22.10;57.70
18412;DHT22;27097;51.738;19.472;2023-05-10T14:47:08;22.10;57.90
18412;DHT22;27097;51.738;19.472;2023-05-10T14:49:37;22.10;58.00
18412;DHT22;27097;51.738;19.472;2023-05-10T14:52:04;22.10;57.80
18412;DHT22;27097;51.738;19.472;2023-05-10T14:54:30;22.10;56.20
18412;DHT22;27097;51.738;19.472;2023-05-10T14:56:58;22.10;55.90
18412;DHT22;27097;51.738;19.472;2023-05-10T14:59:25;22.10;57.20
18412;DHT22;27097;51.738;19.472;2023-05-10T15:01:52;22.10;56.10
18412;DHT22;27097;51.738;19.472;2023-05-10T15:04:19;22.10;57.00
18412;DHT22;27097;51.738;19.472;2023-05-10T15:06:51;22.00;55.70
18412;DHT22;27097;51.738;19.472;2023-05-10T15:09:17;22.10;56.90
18412;DHT22;27097;51.738;19.472;2023-05-10T15:11:45;22.00;55.60
18412;DHT22;27097;51.738;19.472;2023-05-10T15:14:12;22.00;55.80
18412;DHT22;27097;51.738;19.472;2023-05-10T15:16:38;22.00;57.20
18412;DHT22;27097;51.738;19.472;2023-05-10T15:19:05;22.00;56.80
18412;DHT22;27097;51.738;19.472;2023-05-10T15:21:32;22.00;55.50
18412;DHT22;27097;51.738;19.472;2023-05-10T15:24:05;22.00;55.90
18412;DHT22;27097;51.738;19.472;2023-05-10T15:26:32;22.00;55.80
18412;DHT22;27097;51.738;19.472;2023-05-10T15:28:59;22.00;55.70
18412;DHT22;27097;51.738;19.472;2023-05-10T15:31:29;22.00;56.50
18412;DHT22;27097;51.738;19.472;2023-05-10T15:33:58;22.00;56.10
18412;DHT22;27097;51.738;19.472;2023-05-10T15:36:25;22.00;54.80
18412;DHT22;27097;51.738;19.472;2023-05-10T15:39:08;22.00;55.60
18412;DHT22;27097;51.738;19.472;2023-05-10T15:41:35;22.00;56.00
18412;DHT22;27097;51.738;19.472;2023-05-10T15:44:02;22.00;55.20
18412;DHT22;27097;51.738;19.472;2023-05-10T15:46:30;22.00;54.20
18412;DHT22;27097;51.738;19.472;2023-05-10T15:48:57;22.00;55.40
18412;DHT22;27097;51.738;19.472;2023-05-10T15:51:45;22.00;55.00
18412;DHT22;27097;51.738;19.472;2023-05-10T15:54:16;22.00;54.50
18412;DHT22;27097;51.738;19.472;2023-05-10T15:56:42;21.90;53.70
18412;DHT22;27097;51.738;19.472;2023-05-10T15:59:09;21.90;55.20
18412;DHT22;27097;51.738;19.472;2023-05-10T16:01:36;21.90;55.10
18412;DHT22;27097;51.738;19.472;2023-05-10T16:04:03;21.90;54.50
18412;DHT22;27097;51.738;19.472;2023-05-10T16:06:30;21.90;55.00
18412;DHT22;27097;51.738;19.472;2023-05-10T16:08:57;21.90;53.10
18412;DHT22;27097;51.738;19.472;2023-05-10T16:11:25;21.90;54.70
18412;DHT22;27097;51.738;19.472;2023-05-10T16:13:52;21.90;55.10
18412;DHT22;27097;51.738;19.472;2023-05-10T16:16:19;21.90;55.00
18412;DHT22;27097;51.738;19.472;2023-05-10T16:18:46;21.90;54.30
18412;DHT22;27097;51.738;19.472;2023-05-10T16:21:13;21.90;53.90
18412;DHT22;27097;51.738;19.472;2023-05-10T16:24:14;21.90;53.80
18412;DHT22;27097;51.738;19.472;2023-05-10T16:26:43;21.90;53.10
18412;DHT22;27097;51.738;19.472;2023-05-10T16:29:10;21.90;54.50
18412;DHT22;27097;51.738;19.472;2023-05-10T16:31:36;21.90;54.30
18412;DHT22;27097;51.738;19.472;2023-05-10T16:34:03;21.90;54.60
18412;DHT22;27097;51.738;19.472;2023-05-10T16:37:07;21.90;54.20
18412;DHT22;27097;51.738;19.472;2023-05-10T16:43:08;21.90;54.20
18412;DHT22;27097;51.738;19.472;2023-05-10T16:46:09;21.90;54.60
18412;DHT22;27097;51.738;19.472;2023-05-10T16:48:36;21.80;55.40
18412;DHT22;27097;51.738;19.472;2023-05-10T16:51:07;21.80;54.30
18412;DHT22;27097;51.738;19.472;2023-05-10T16:53:35;21.80;53.30
18412;DHT22;27097;51.738;19.472;2023-05-10T16:56:02;21.80;52.70
18412;DHT22;27097;51.738;19.472;2023-05-10T16:59:03;21.80;54.30
18412;DHT22;27097;51.738;19.472;2023-05-10T17:01:30;21.80;53.00
18412;DHT22;27097;51.738;19.472;2023-05-10T17:03:57;21.80;54.70
18412;DHT22;27097;51.738;19.472;2023-05-10T17:06:28;21.80;54.60
18412;DHT22;27097;51.738;19.472;2023-05-10T17:09:01;21.80;53.80
18412;DHT22;27097;51.738;19.472;2023-05-10T17:11:30;21.80;53.50
18412;DHT22;27097;51.738;19.472;2023-05-10T17:21:24;21.80;54.30
18412;DHT22;27097;51.738;19.472;2023-05-10T17:23:54;21.80;54.10
18412;DHT22;27097;51.738;19.472;2023-05-10T17:26:30;21.80;54.90
18412;DHT22;27097;51.738;19.472;2023-05-10T17:41:15;21.80;55.30
18412;DHT22;27097;51.738;19.472;2023-05-10T17:43:41;21.80;55.50
18412;DHT22;27097;51.738;19.472;2023-05-10T17:46:09;21.80;53.20
18412;DHT22;27097;51.738;19.472;2023-05-10T17:48:37;21.80;53.80